createdAt,value
2018-06-10T00:00:33.575Z,16.20
2018-06-10T00:05:36.676Z,15.10
2018-06-10T00:10:39.682Z,17.63
2018-06-10T00:15:42.763Z,17.63
2018-06-10T00:20:45.826Z,17.00
2018-06-10T00:25:48.861Z,18.47
2018-06-10T00:30:51.877Z,20.80
2018-06-10T00:35:54.917Z,20.13
2018-06-10T00:40:57.973Z,22.53
2018-06-10T00:46:01.045Z,23.23
2018-06-10T00:51:04.107Z,23.17
2018-06-10T00:56:24.280Z,21.87
2018-06-10T01:01:27.295Z,24.20
2018-06-10T01:06:30.345Z,24.30
2018-06-10T01:11:33.350Z,24.43
2018-06-10T01:16:36.409Z,23.93
2018-06-10T01:21:39.392Z,22.67
2018-06-10T01:26:48.090Z,24.67
2018-06-10T01:31:51.096Z,23.43
2018-06-10T01:36:54.106Z,25.97
2018-06-10T01:41:57.168Z,23.93
2018-06-10T01:47:00.212Z,25.47
2018-06-10T01:52:03.261Z,26.17
2018-06-10T01:57:06.269Z,25.70
2018-06-10T02:02:09.306Z,24.37
2018-06-10T02:07:13.322Z,23.70
2018-06-10T02:12:16.346Z,21.60
2018-06-10T02:17:19.414Z,20.87
2018-06-10T02:22:22.445Z,22.00
2018-06-10T02:27:25.422Z,21.07
2018-06-10T02:32:28.417Z,20.07
2018-06-10T02:37:31.447Z,19.67
2018-06-10T02:42:34.518Z,18.50
2018-06-10T02:47:37.521Z,19.07
2018-06-10T02:52:40.520Z,18.03
2018-06-10T02:57:43.637Z,19.23
2018-06-10T03:02:46.649Z,18.93
2018-06-10T03:07:49.950Z,18.00
2018-06-10T03:12:53.251Z,19.67
2018-06-10T03:17:56.577Z,19.10
2018-06-10T03:22:59.937Z,17.57
2018-06-10T03:28:03.211Z,18.03
2018-06-10T03:33:06.216Z,17.70
2018-06-10T03:38:09.217Z,17.83
2018-06-10T03:43:13.248Z,17.10
2018-06-10T03:48:16.321Z,17.37
2018-06-10T03:53:20.020Z,17.00
2018-06-10T03:58:24.186Z,15.67
2018-06-10T04:03:27.254Z,17.63
2018-06-10T04:08:30.614Z,18.00
2018-06-10T04:13:33.641Z,18.90
2018-06-10T04:18:36.697Z,17.87
2018-06-10T04:23:39.724Z,18.07
2018-06-10T04:28:42.793Z,21.03
2018-06-10T04:33:45.892Z,19.20
2018-06-10T04:38:48.852Z,20.13
2018-06-10T04:43:51.839Z,19.77
2018-06-10T04:48:54.821Z,19.27
2018-06-10T04:53:57.880Z,21.57
2018-06-10T04:59:00.863Z,22.50
2018-06-10T05:04:03.905Z,23.03
2018-06-10T05:09:07.012Z,22.60
2018-06-10T05:14:09.989Z,24.80
2018-06-10T05:19:13.053Z,23.30
2018-06-10T05:24:16.149Z,23.47
2018-06-10T05:29:19.137Z,24.60
2018-06-10T05:34:22.201Z,24.50
2018-06-10T05:39:25.185Z,25.30
2018-06-10T05:44:28.269Z,24.17
2018-06-10T05:49:31.293Z,26.97
2018-06-10T05:54:34.362Z,27.50
2018-06-10T05:59:37.317Z,27.83
2018-06-10T06:04:41.662Z,28.33
2018-06-10T06:09:44.662Z,26.70
2018-06-10T06:14:47.764Z,25.43
2018-06-10T06:19:50.793Z,27.17
2018-06-10T06:24:53.825Z,26.00
2018-06-10T06:29:58.198Z,26.47
2018-06-10T06:35:01.240Z,24.60
2018-06-10T06:40:04.352Z,24.17
2018-06-10T06:45:07.438Z,25.17
2018-06-10T06:50:10.531Z,25.47
2018-06-10T06:55:13.836Z,25.20
2018-06-10T07:00:16.912Z,24.93
2018-06-10T07:05:19.955Z,24.37
2018-06-10T07:10:23.019Z,24.93
2018-06-10T07:15:26.058Z,26.97
2018-06-10T07:20:29.157Z,26.33
2018-06-10T07:25:32.213Z,25.10
2018-06-10T07:30:35.195Z,26.13
2018-06-10T07:35:38.198Z,24.60
2018-06-10T07:40:41.253Z,24.50
2018-06-10T07:45:44.453Z,24.57
2018-06-10T07:50:47.513Z,24.77
2018-06-10T07:55:50.541Z,22.40
2018-06-10T08:00:53.542Z,21.67
2018-06-10T08:05:56.653Z,22.07
2018-06-10T08:10:59.758Z,22.27
2018-06-10T08:16:02.836Z,21.97
2018-06-10T08:21:05.901Z,22.13
2018-06-10T08:26:08.946Z,21.63
2018-06-10T08:31:12.055Z,21.47
2018-06-10T08:36:15.261Z,21.07
2018-06-10T08:41:18.378Z,20.40
2018-06-10T08:46:21.559Z,20.27
2018-06-10T08:51:24.657Z,20.13
2018-06-10T08:56:27.714Z,21.57
2018-06-10T09:01:30.958Z,21.83
2018-06-10T09:06:34.051Z,21.83
2018-06-10T09:11:37.586Z,21.57
2018-06-10T09:16:40.701Z,21.00
2018-06-10T09:21:43.762Z,20.37
2018-06-10T09:26:46.830Z,20.80
2018-06-10T09:31:50.288Z,20.33
2018-06-10T09:36:53.293Z,18.53
2018-06-10T09:41:56.316Z,19.17
2018-06-10T09:46:59.345Z,18.00
2018-06-10T09:52:03.351Z,18.00
2018-06-10T09:57:06.511Z,17.87
2018-06-10T10:02:09.656Z,18.37
2018-06-10T10:07:12.721Z,18.00
2018-06-10T10:12:15.757Z,17.33
2018-06-10T10:17:19.815Z,17.47
2018-06-10T10:22:22.951Z,16.93
2018-06-10T10:27:27.490Z,14.57
2018-06-10T10:32:30.534Z,15.67
2018-06-10T10:37:34.336Z,16.33
2018-06-10T10:42:38.408Z,14.77
2018-06-10T10:47:41.437Z,15.57
2018-06-10T10:52:44.492Z,14.63
2018-06-10T10:57:47.555Z,13.27
2018-06-10T11:02:50.586Z,14.70
2018-06-10T11:07:53.601Z,14.23
2018-06-10T11:12:56.678Z,13.70
2018-06-10T11:17:59.820Z,14.77
2018-06-10T11:23:02.927Z,14.23
2018-06-10T11:28:06.010Z,15.00
2018-06-10T11:33:09.138Z,14.30
2018-06-10T11:38:12.227Z,13.70
2018-06-10T11:43:15.270Z,14.43
2018-06-10T11:48:18.326Z,15.73
2018-06-10T11:53:21.365Z,13.87
2018-06-10T11:58:24.385Z,15.10
2018-06-10T12:03:27.730Z,12.80
2018-06-10T12:08:32.452Z,13.17
2018-06-10T12:13:36.259Z,14.07
2018-06-10T12:18:39.350Z,15.57
2018-06-10T12:23:42.365Z,14.57
2018-06-10T12:28:45.605Z,13.73
2018-06-10T12:33:48.693Z,13.83
2018-06-10T12:38:52.027Z,14.93
2018-06-10T12:43:56.826Z,14.87
2018-06-10T12:49:00.012Z,15.10
2018-06-10T12:54:03.132Z,15.50
2018-06-10T12:59:06.170Z,17.70
2018-06-10T13:04:09.194Z,17.47
2018-06-10T13:09:12.324Z,17.93
2018-06-10T13:14:15.373Z,18.10
2018-06-10T13:19:18.393Z,19.80
2018-06-10T13:24:21.445Z,20.07
2018-06-10T13:29:24.461Z,20.20
2018-06-10T13:34:27.505Z,21.87
2018-06-10T13:39:30.554Z,20.07
2018-06-10T13:44:33.612Z,20.80
2018-06-10T13:49:36.694Z,19.47
2018-06-10T13:54:39.768Z,19.70
2018-06-10T13:59:42.771Z,19.47
2018-06-10T14:04:45.817Z,18.20
2018-06-10T14:09:48.864Z,18.00
2018-06-10T14:14:51.917Z,17.60
2018-06-10T14:19:54.951Z,15.37
2018-06-10T14:24:58.034Z,14.80
2018-06-10T14:30:01.165Z,14.60
2018-06-10T14:35:04.349Z,14.10
2018-06-10T14:40:07.433Z,14.83
2018-06-10T14:45:10.517Z,15.07
2018-06-10T14:50:13.529Z,14.23
2018-06-10T14:55:16.609Z,15.23
2018-06-10T15:00:20.522Z,13.97
2018-06-10T15:05:23.741Z,15.30
2018-06-10T15:10:26.816Z,13.13
2018-06-10T15:15:29.951Z,12.70
2018-06-10T15:20:33.114Z,14.40
2018-06-10T15:25:36.395Z,14.33
2018-06-10T15:30:39.521Z,13.97
2018-06-10T15:35:42.567Z,14.77
2018-06-10T15:40:45.593Z,14.20
2018-06-10T15:45:48.602Z,13.70
2018-06-10T15:50:51.649Z,13.80
2018-06-10T15:55:54.681Z,20.17
2018-06-10T16:00:57.702Z,13.10
2018-06-10T16:06:00.738Z,13.60
2018-06-10T16:11:03.882Z,13.47
2018-06-10T16:16:06.901Z,11.20
2018-06-10T16:21:09.913Z,11.20
2018-06-10T16:26:12.983Z,11.00
2018-06-10T16:31:16.029Z,12.03
2018-06-10T16:36:19.102Z,12.70
2018-06-10T16:41:22.470Z,11.43
2018-06-10T16:46:25.538Z,11.63
2018-06-10T16:51:28.522Z,10.40
2018-06-10T16:56:31.537Z,12.00
2018-06-10T17:01:34.547Z,11.07
2018-06-10T17:06:37.582Z,10.83
2018-06-10T17:11:40.565Z,11.17
2018-06-10T17:16:43.586Z,11.50
2018-06-10T17:21:46.635Z,10.97
2018-06-10T17:26:49.658Z,11.30
2018-06-10T17:31:52.721Z,10.20
2018-06-10T17:36:55.815Z,10.63
2018-06-10T17:41:58.828Z,8.83
2018-06-10T17:47:02.949Z,9.50
2018-06-10T17:52:06.074Z,8.93
2018-06-10T17:57:09.111Z,8.90
2018-06-10T18:02:12.162Z,9.00
2018-06-10T18:07:15.169Z,8.53
2018-06-10T18:12:18.192Z,8.77
2018-06-10T18:17:21.702Z,9.00
2018-06-10T18:22:24.797Z,8.90
2018-06-10T18:27:27.897Z,9.10
2018-06-10T18:32:31.013Z,8.63
2018-06-10T18:37:34.091Z,10.10
2018-06-10T18:42:37.124Z,9.60
2018-06-10T18:47:40.229Z,10.30
2018-06-10T18:52:43.297Z,10.20
2018-06-10T18:57:46.361Z,10.07
2018-06-10T19:02:49.381Z,11.80
2018-06-10T19:07:52.405Z,10.80
2018-06-10T19:12:55.626Z,10.23
2018-06-10T19:17:59.111Z,9.83
2018-06-10T19:23:02.158Z,10.57
2018-06-10T19:28:05.804Z,10.67
2018-06-10T19:33:08.840Z,12.60
2018-06-10T19:38:11.864Z,11.63
2018-06-10T19:43:14.875Z,11.10
2018-06-10T19:48:17.921Z,11.17
2018-06-10T19:53:20.946Z,12.30
2018-06-10T19:58:24.016Z,12.53
2018-06-10T20:03:27.122Z,12.10
2018-06-10T20:08:30.141Z,12.90
2018-06-10T20:13:33.173Z,13.13
2018-06-10T20:18:36.202Z,11.63
2018-06-10T20:23:39.223Z,12.63
2018-06-10T20:28:42.256Z,11.90
2018-06-10T20:33:45.340Z,14.20
2018-06-10T20:38:48.411Z,12.33
2018-06-10T20:43:51.457Z,13.90
2018-06-10T20:48:54.503Z,14.60
2018-06-10T20:53:57.607Z,14.23
2018-06-10T20:59:00.641Z,14.50
2018-06-10T21:04:03.712Z,14.40
2018-06-10T21:09:07.848Z,14.43
2018-06-10T21:14:10.914Z,13.63
2018-06-10T21:19:13.962Z,13.90
2018-06-10T21:24:17.046Z,14.07
2018-06-10T21:29:20.081Z,14.10
2018-06-10T21:34:23.126Z,15.73
2018-06-10T21:39:26.150Z,14.53
2018-06-10T21:44:29.170Z,14.13
2018-06-10T21:49:32.265Z,12.47
2018-06-10T21:54:35.329Z,13.70
2018-06-10T21:59:38.375Z,14.30
2018-06-10T22:04:41.452Z,13.77
2018-06-10T22:09:44.856Z,13.50
2018-06-10T22:14:47.875Z,14.77
2018-06-10T22:19:50.917Z,14.27
2018-06-10T22:24:53.953Z,14.70
2018-06-10T22:29:56.985Z,15.20
2018-06-10T22:35:00.031Z,14.70
2018-06-10T22:40:03.131Z,14.70
2018-06-10T22:45:06.199Z,14.70
2018-06-10T22:50:09.201Z,15.27
2018-06-10T22:55:12.217Z,14.77
2018-06-10T23:00:15.281Z,16.40
2018-06-10T23:05:18.320Z,15.30
2018-06-10T23:10:21.318Z,16.13
2018-06-10T23:15:24.401Z,15.00
2018-06-10T23:20:27.439Z,15.40
2018-06-10T23:25:30.490Z,14.13
2018-06-10T23:30:33.521Z,14.57
2018-06-10T23:35:36.594Z,13.93
2018-06-10T23:40:39.671Z,13.67
2018-06-10T23:45:42.739Z,15.87
2018-06-10T23:50:45.789Z,14.43
2018-06-10T23:55:48.903Z,13.70
